createdAt,value
2023-03-21T04:01:51.992Z,5.25
2023-03-21T04:04:22.916Z,7.63
2023-03-21T04:06:53.386Z,6.13
2023-03-21T04:09:37.444Z,4.95
2023-03-21T04:12:12.717Z,4.07
2023-03-21T04:14:47.160Z,5.88
2023-03-21T04:17:19.835Z,4.13
2023-03-21T04:19:55.587Z,4.97
2023-03-21T04:22:25.859Z,4.97
2023-03-21T04:24:54.188Z,4.70
2023-03-21T04:27:22.195Z,7.95
2023-03-21T04:30:09.806Z,13.70
2023-03-21T04:32:56.883Z,9.98
2023-03-21T04:35:26.518Z,5.45
2023-03-21T04:37:54.936Z,5.78
2023-03-21T04:40:24.639Z,4.90
2023-03-21T04:42:53.000Z,8.93
2023-03-21T04:45:20.956Z,5.15
2023-03-21T04:47:48.947Z,5.65
2023-03-21T04:50:18.546Z,5.20
2023-03-21T04:52:46.738Z,3.45
2023-03-21T04:55:14.656Z,5.40
2023-03-21T04:57:42.504Z,5.90
2023-03-21T05:00:13.084Z,6.28
2023-03-21T05:02:41.133Z,4.53
2023-03-21T05:05:11.319Z,4.85
2023-03-21T05:07:41.335Z,6.15
2023-03-21T05:10:12.291Z,5.53
2023-03-21T05:12:41.936Z,5.57
2023-03-21T05:15:10.739Z,5.75
2023-03-21T05:17:38.906Z,6.35
2023-03-21T05:20:09.634Z,8.20
2023-03-21T05:22:40.415Z,4.40
2023-03-21T05:25:14.049Z,6.78
2023-03-21T05:28:09.332Z,6.32
2023-03-21T05:30:37.709Z,3.80
2023-03-21T05:33:06.094Z,6.63
2023-03-21T05:35:34.092Z,5.13
2023-03-21T05:38:05.462Z,6.03
2023-03-21T05:40:47.708Z,5.18
2023-03-21T05:43:15.690Z,8.38
2023-03-21T05:45:44.238Z,4.40
2023-03-21T05:48:12.434Z,5.47
2023-03-21T05:50:57.449Z,5.65
2023-03-21T05:53:25.337Z,5.93
2023-03-21T05:55:55.299Z,4.22
2023-03-21T05:58:41.945Z,6.40
2023-03-21T06:01:10.218Z,4.13
2023-03-21T06:03:42.073Z,5.13
2023-03-21T06:06:16.922Z,5.47
2023-03-21T06:08:54.335Z,8.80
2023-03-21T06:11:29.606Z,8.85
2023-03-21T06:14:23.082Z,9.65
2023-03-21T06:17:08.829Z,6.95
2023-03-21T06:19:43.070Z,6.18
2023-03-21T06:22:20.256Z,4.57
2023-03-21T06:24:48.280Z,4.70
2023-03-21T06:27:19.765Z,5.00
2023-03-21T06:29:55.974Z,6.55
2023-03-21T06:32:24.228Z,3.78
2023-03-21T06:34:57.111Z,8.00
2023-03-21T06:37:26.783Z,5.65
2023-03-21T06:39:55.760Z,5.25
2023-03-21T06:42:25.530Z,5.90
2023-03-21T06:44:59.335Z,6.22
2023-03-21T06:47:28.342Z,4.65
2023-03-21T06:49:56.924Z,4.80
2023-03-21T06:52:24.806Z,6.32
2023-03-21T06:54:54.902Z,5.05
2023-03-21T06:57:22.942Z,7.30
2023-03-21T06:59:53.093Z,4.78
2023-03-21T07:02:22.872Z,5.72
2023-03-21T07:05:14.000Z,6.05
2023-03-21T07:07:43.095Z,9.50
2023-03-21T07:10:12.191Z,6.47
2023-03-21T07:12:52.903Z,4.63
2023-03-21T07:15:24.405Z,7.88
2023-03-21T07:17:52.869Z,9.43
2023-03-21T07:20:21.074Z,6.68
2023-03-21T07:22:49.982Z,6.35
2023-03-21T07:25:20.063Z,8.32
2023-03-21T07:27:48.187Z,7.88
2023-03-21T07:30:16.682Z,8.32
2023-03-21T07:32:47.562Z,5.13
2023-03-21T07:35:18.247Z,7.32
2023-03-21T07:37:46.261Z,5.97
2023-03-21T07:40:17.209Z,9.25
2023-03-21T07:42:45.604Z,7.07
2023-03-21T07:45:16.497Z,6.35
2023-03-21T07:47:48.448Z,8.10
2023-03-21T07:50:16.662Z,6.22
2023-03-21T07:52:46.109Z,6.78
2023-03-21T07:55:14.003Z,7.20
2023-03-21T07:57:41.894Z,5.93
2023-03-21T08:00:11.047Z,8.55
2023-03-21T08:02:43.210Z,6.30
2023-03-21T08:05:12.612Z,6.00
2023-03-21T08:07:40.559Z,6.93
2023-03-21T08:10:11.541Z,7.90
2023-03-21T08:12:39.389Z,4.80
2023-03-21T08:15:08.454Z,6.43
2023-03-21T08:17:38.032Z,5.20
2023-03-21T08:20:08.930Z,4.22
2023-03-21T08:22:38.592Z,7.10
2023-03-21T08:25:08.727Z,8.35
2023-03-21T08:27:36.618Z,8.57
2023-03-21T08:30:05.068Z,6.57
2023-03-21T08:32:33.669Z,6.05
2023-03-21T08:35:02.677Z,6.93
2023-03-21T08:37:31.076Z,7.55
2023-03-21T08:40:00.429Z,7.72
2023-03-21T08:42:28.368Z,8.65
2023-03-21T08:44:56.202Z,7.05
2023-03-21T08:47:24.042Z,6.63
2023-03-21T08:49:51.892Z,7.53
2023-03-21T08:52:19.714Z,6.35
2023-03-21T08:54:48.454Z,20.40
2023-03-21T08:57:17.781Z,14.05
2023-03-21T08:59:45.790Z,13.45
2023-03-21T09:02:15.684Z,6.63
2023-03-21T09:04:44.740Z,9.80
2023-03-21T09:07:14.894Z,10.20
2023-03-21T09:09:42.821Z,28.10
2023-03-21T09:12:11.030Z,10.13
2023-03-21T09:14:41.193Z,8.85
2023-03-21T09:17:09.154Z,22.02
2023-03-21T09:19:38.813Z,6.65
2023-03-21T09:22:11.054Z,8.80
2023-03-21T09:24:38.920Z,7.72
2023-03-21T09:27:07.052Z,7.97
2023-03-21T09:29:35.529Z,7.78
2023-03-21T09:32:06.896Z,5.82
2023-03-21T09:34:36.946Z,7.65
2023-03-21T09:37:11.183Z,9.30
2023-03-21T09:39:39.234Z,6.22
2023-03-21T09:42:19.337Z,8.80
2023-03-21T09:44:58.875Z,6.05
2023-03-21T09:47:34.707Z,4.80
2023-03-21T09:50:14.850Z,8.48
2023-03-21T09:52:48.019Z,7.63
2023-03-21T09:55:20.037Z,7.80
2023-03-21T09:57:50.419Z,7.18
2023-03-21T10:00:24.866Z,5.82
2023-03-21T10:03:06.703Z,6.45
2023-03-21T10:05:35.714Z,7.13
2023-03-21T10:08:07.757Z,8.18
2023-03-21T10:10:39.147Z,9.35
2023-03-21T10:13:14.725Z,8.85
2023-03-21T10:15:42.781Z,9.20
2023-03-21T10:18:20.415Z,6.93
2023-03-21T10:20:48.281Z,7.43
2023-03-21T10:23:19.986Z,9.45
2023-03-21T10:25:51.288Z,6.45
2023-03-21T10:28:22.196Z,5.28
2023-03-21T10:30:52.483Z,7.20
2023-03-21T10:33:25.808Z,6.78
2023-03-21T10:35:59.642Z,12.15
2023-03-21T10:38:29.574Z,11.15
2023-03-21T10:40:57.524Z,10.80
2023-03-21T10:43:35.259Z,8.10
2023-03-21T10:46:10.471Z,7.68
2023-03-21T10:48:41.880Z,9.63
2023-03-21T10:51:18.736Z,7.57
2023-03-21T10:53:51.655Z,7.05
2023-03-21T10:56:23.699Z,7.30
2023-03-21T10:58:52.680Z,9.57
2023-03-21T11:01:30.293Z,8.80
2023-03-21T11:04:02.655Z,8.63
2023-03-21T11:06:32.728Z,5.60
2023-03-21T11:09:05.982Z,8.00
2023-03-21T11:11:39.330Z,8.75
2023-03-21T11:14:09.363Z,7.70
2023-03-21T11:16:41.530Z,5.78
2023-03-21T11:19:16.889Z,7.70
2023-03-21T11:21:46.317Z,8.15
2023-03-21T11:24:16.210Z,6.13
2023-03-21T11:26:45.798Z,5.20
2023-03-21T11:29:30.041Z,7.93
2023-03-21T11:32:02.795Z,7.25
2023-03-21T11:34:39.900Z,8.07
2023-03-21T11:37:21.047Z,6.00
2023-03-21T11:39:48.886Z,5.78
2023-03-21T11:42:29.134Z,5.78
2023-03-21T11:45:12.728Z,5.95
2023-03-21T11:47:40.822Z,7.38
2023-03-21T11:50:19.572Z,6.93
2023-03-21T11:52:56.189Z,8.23
2023-03-21T11:55:36.974Z,8.35
2023-03-21T11:58:15.422Z,6.88
2023-03-21T12:00:54.638Z,8.98
2023-03-21T12:03:47.090Z,5.90
2023-03-21T12:06:23.937Z,6.22
2023-03-21T12:09:03.814Z,7.22
2023-03-21T12:11:39.605Z,6.15
2023-03-21T12:14:14.632Z,8.80
2023-03-21T12:16:57.591Z,8.32
2023-03-21T12:19:51.412Z,6.18
2023-03-21T12:22:29.755Z,9.52
2023-03-21T12:24:58.854Z,8.45
2023-03-21T12:27:38.236Z,7.20
2023-03-21T12:30:20.659Z,8.10
2023-03-21T12:32:58.348Z,6.28
2023-03-21T12:35:36.891Z,7.30
2023-03-21T12:38:17.066Z,8.90
2023-03-21T12:41:07.311Z,9.93
2023-03-21T12:43:45.275Z,10.90
2023-03-21T12:46:19.740Z,8.85
2023-03-21T12:48:52.724Z,9.20
2023-03-21T12:51:25.145Z,10.45
2023-03-21T12:54:00.107Z,6.68
2023-03-21T12:56:33.525Z,8.82
2023-03-21T12:59:09.012Z,9.10
2023-03-21T13:01:40.079Z,7.95
2023-03-21T13:04:22.389Z,9.32
2023-03-21T13:06:55.397Z,8.90
2023-03-21T13:09:37.572Z,8.50
2023-03-21T13:12:27.033Z,9.77
2023-03-21T13:15:07.819Z,8.05
2023-03-21T13:17:44.057Z,9.70
2023-03-21T13:20:20.547Z,12.60
2023-03-21T13:22:48.506Z,7.13
2023-03-21T13:25:23.028Z,9.57
2023-03-21T13:27:55.409Z,6.55
2023-03-21T13:30:26.377Z,9.32
2023-03-21T13:33:04.939Z,7.63
2023-03-21T13:35:38.863Z,8.52
2023-03-21T13:38:13.628Z,9.07
2023-03-21T13:40:46.780Z,9.00
2023-03-21T13:43:39.948Z,9.95
2023-03-21T13:46:09.790Z,9.50
2023-03-21T13:48:57.785Z,8.50
2023-03-21T13:51:47.164Z,7.93
2023-03-21T13:54:24.238Z,9.20
2023-03-21T13:56:57.775Z,9.02
2023-03-21T13:59:39.416Z,9.27
2023-03-21T14:02:29.771Z,8.93
2023-03-21T14:05:06.642Z,7.53
2023-03-21T14:07:36.697Z,13.35
2023-03-21T14:10:09.334Z,10.52
2023-03-21T14:12:43.053Z,8.80
2023-03-21T14:15:19.101Z,7.85
2023-03-21T14:17:55.507Z,14.18
2023-03-21T14:20:26.355Z,8.60
2023-03-21T14:22:54.567Z,11.30
2023-03-21T14:25:29.252Z,10.25
2023-03-21T14:28:04.801Z,11.10
2023-03-21T14:30:34.899Z,12.35
2023-03-21T14:33:09.169Z,10.48
2023-03-21T14:35:37.596Z,13.48
2023-03-21T14:38:08.842Z,11.15
2023-03-21T14:40:37.460Z,12.05
2023-03-21T14:43:07.427Z,12.80
2023-03-21T14:45:38.361Z,11.63
2023-03-21T14:48:09.621Z,13.27
2023-03-21T14:50:41.675Z,12.48
2023-03-21T14:53:15.399Z,12.63
2023-03-21T14:55:45.261Z,12.43
2023-03-21T14:58:17.892Z,10.77
2023-03-21T15:00:49.377Z,13.95
2023-03-21T15:03:18.604Z,10.60
2023-03-21T15:05:47.365Z,12.10
2023-03-21T15:08:17.288Z,11.25
2023-03-21T15:11:06.298Z,8.15
2023-03-21T15:13:38.532Z,11.48
2023-03-21T15:16:09.092Z,12.80
2023-03-21T15:18:39.728Z,15.57
2023-03-21T15:21:12.174Z,15.60
2023-03-21T15:23:41.665Z,17.88
2023-03-21T15:26:15.730Z,12.90
2023-03-21T15:28:49.318Z,14.07
2023-03-21T15:31:19.704Z,12.38
2023-03-21T15:33:48.774Z,11.30
2023-03-21T15:36:22.005Z,10.10
2023-03-21T15:38:50.806Z,12.00
2023-03-21T15:41:27.593Z,12.00
2023-03-21T15:44:03.818Z,11.45
2023-03-21T15:46:41.605Z,10.82
2023-03-21T15:49:18.381Z,11.45
2023-03-21T15:51:48.713Z,9.80
2023-03-21T15:54:21.980Z,11.70
2023-03-21T15:56:51.743Z,8.80
2023-03-21T15:59:22.286Z,10.52
2023-03-21T16:01:52.309Z,11.65
2023-03-21T16:04:20.427Z,10.13
2023-03-21T16:06:59.421Z,9.98
2023-03-21T16:09:27.668Z,10.00
2023-03-21T16:11:57.374Z,11.88
2023-03-21T16:14:28.492Z,10.63
2023-03-21T16:16:57.302Z,10.68
2023-03-21T16:19:27.820Z,10.40
2023-03-21T16:21:55.697Z,13.23
2023-03-21T16:24:23.528Z,10.60
2023-03-21T16:26:53.355Z,11.80
2023-03-21T16:29:22.530Z,11.80
2023-03-21T16:31:51.799Z,10.38
2023-03-21T16:34:19.736Z,14.77
2023-03-21T16:36:48.035Z,11.18
2023-03-21T16:39:28.059Z,9.50
2023-03-21T16:41:56.218Z,11.77
2023-03-21T16:44:24.279Z,11.77
2023-03-21T16:46:53.993Z,12.35
2023-03-21T16:49:24.845Z,9.30
2023-03-21T16:51:53.824Z,10.63
2023-03-21T16:54:21.860Z,10.70
2023-03-21T16:56:52.636Z,10.32
2023-03-21T16:59:20.835Z,13.05
2023-03-21T17:01:49.021Z,12.18
2023-03-21T17:04:19.241Z,9.43
2023-03-21T17:06:49.311Z,10.80
2023-03-21T17:09:18.922Z,11.43
2023-03-21T17:11:46.853Z,12.45
2023-03-21T17:14:16.758Z,10.10
2023-03-21T17:16:45.209Z,10.98
2023-03-21T17:19:14.944Z,7.95
2023-03-21T17:21:44.527Z,10.05
2023-03-21T17:24:12.505Z,11.90
2023-03-21T17:26:40.996Z,12.27
2023-03-21T17:29:11.210Z,10.20
2023-03-21T17:31:39.149Z,10.77
2023-03-21T17:34:07.997Z,10.63
2023-03-21T17:36:38.296Z,11.40
2023-03-21T17:39:10.537Z,11.23
2023-03-21T17:41:38.399Z,10.15
2023-03-21T17:44:06.763Z,10.75
2023-03-21T17:46:37.618Z,11.20
2023-03-21T17:49:06.363Z,9.98
2023-03-21T17:51:34.231Z,10.50
2023-03-21T17:54:02.112Z,10.40
2023-03-21T17:56:33.314Z,10.32
2023-03-21T17:59:03.520Z,12.52
2023-03-21T18:01:32.096Z,15.27
2023-03-21T18:04:03.753Z,10.77
2023-03-21T18:06:33.846Z,14.73
2023-03-21T18:09:06.663Z,10.20
2023-03-21T18:11:35.886Z,12.43
2023-03-21T18:14:15.809Z,12.45
2023-03-21T18:16:45.000Z,15.52
2023-03-21T18:19:13.817Z,11.93
2023-03-21T18:21:44.817Z,11.70
2023-03-21T18:24:13.044Z,11.98
2023-03-21T18:26:42.394Z,10.57
2023-03-21T18:32:06.335Z,11.35
2023-03-21T18:34:39.332Z,15.25
2023-03-21T18:37:08.434Z,11.65
2023-03-21T18:39:37.812Z,12.88
2023-03-21T18:42:07.802Z,11.88
2023-03-21T18:44:45.569Z,12.40
2023-03-21T18:47:14.353Z,13.52
2023-03-21T18:50:13.194Z,13.02
2023-03-21T18:52:30.224Z,13.88
2023-03-21T18:54:58.525Z,11.20
2023-03-21T18:57:36.313Z,14.07
2023-03-21T19:00:12.322Z,13.80
2023-03-21T19:02:45.625Z,16.17
2023-03-21T19:05:14.758Z,16.92
2023-03-21T19:07:42.869Z,20.88
2023-03-21T19:10:18.014Z,16.73
2023-03-21T19:12:48.316Z,14.27
2023-03-21T19:15:18.658Z,14.93
2023-03-21T19:18:28.615Z,12.35
2023-03-21T19:20:34.909Z,15.35
2023-03-21T19:23:03.195Z,14.00
2023-03-21T19:25:31.027Z,14.68
2023-03-21T19:28:00.305Z,13.73
2023-03-21T19:30:28.141Z,14.27
2023-03-21T19:32:56.262Z,15.15
2023-03-21T19:35:28.254Z,15.13
2023-03-21T19:37:56.408Z,14.15
2023-03-21T19:40:24.598Z,12.80
2023-03-21T19:42:52.713Z,15.73
2023-03-21T19:45:23.381Z,14.57
2023-03-21T19:47:51.320Z,14.38
2023-03-21T19:51:13.355Z,14.93
2023-03-21T19:53:08.034Z,15.73
2023-03-21T19:55:36.397Z,16.02
2023-03-21T19:58:05.964Z,15.80
2023-03-21T20:00:37.054Z,16.70
2023-03-21T20:03:08.527Z,16.45
2023-03-21T20:05:36.722Z,14.13
2023-03-21T20:08:07.853Z,18.83
2023-03-21T20:10:38.697Z,16.10
2023-03-21T20:13:06.696Z,18.10
2023-03-21T20:15:45.867Z,14.75
2023-03-21T20:18:15.791Z,15.80
2023-03-21T20:20:43.694Z,17.30
2023-03-21T20:23:11.720Z,16.25
2023-03-21T20:25:44.892Z,16.38
2023-03-21T20:28:17.156Z,19.02
2023-03-21T20:30:56.772Z,23.65
2023-03-21T20:33:25.146Z,19.65
2023-03-21T20:38:45.565Z,17.52
2023-03-21T20:41:13.791Z,21.85
2023-03-21T20:46:31.336Z,18.70
2023-03-21T20:49:05.681Z,18.75
2023-03-21T20:54:22.443Z,20.48
2023-03-21T20:56:51.359Z,24.08
2023-03-21T20:59:27.296Z,18.83
2023-03-21T21:01:58.074Z,22.58
2023-03-21T21:04:46.723Z,21.90
2023-03-21T21:07:17.729Z,25.23
2023-03-21T21:09:46.792Z,23.10
2023-03-21T21:12:16.322Z,24.17
2023-03-21T21:14:45.329Z,32.40
2023-03-21T21:17:31.057Z,36.53
2023-03-21T21:20:12.198Z,40.25
2023-03-21T21:22:42.866Z,32.65
2023-03-21T21:25:13.886Z,24.73
2023-03-21T21:27:52.542Z,24.67
2023-03-21T21:30:20.911Z,24.40
2023-03-21T21:32:50.225Z,23.17
2023-03-21T21:35:20.412Z,21.33
2023-03-21T21:37:48.850Z,23.15
2023-03-21T21:40:20.406Z,22.45
2023-03-21T21:42:48.548Z,28.73
2023-03-21T21:45:16.951Z,23.40
2023-03-21T21:47:46.178Z,26.30
2023-03-21T21:50:16.684Z,26.13
2023-03-21T21:52:52.562Z,23.85
2023-03-21T21:55:20.769Z,25.48
2023-03-21T21:57:51.016Z,28.52
2023-03-21T22:00:20.425Z,26.10
2023-03-21T22:02:48.418Z,28.48
2023-03-21T22:05:20.946Z,29.90
2023-03-21T22:07:49.563Z,27.20
2023-03-21T22:10:17.623Z,23.58
2023-03-21T22:12:45.689Z,24.63
2023-03-21T22:15:14.344Z,23.75
2023-03-21T22:17:42.635Z,23.55
2023-03-21T22:20:12.567Z,22.38
2023-03-21T22:22:42.270Z,21.88
2023-03-21T22:25:12.425Z,21.85
2023-03-21T22:27:40.593Z,21.42
2023-03-21T22:30:13.754Z,21.27
2023-03-21T22:32:42.246Z,21.67
2023-03-21T22:35:11.261Z,19.70
2023-03-21T22:37:42.646Z,19.42
2023-03-21T22:40:13.061Z,19.20
2023-03-21T22:42:41.956Z,21.23
2023-03-21T22:45:12.281Z,20.75
2023-03-21T22:47:40.678Z,22.17
2023-03-21T22:50:09.502Z,21.23
2023-03-21T22:52:37.465Z,21.23
2023-03-21T22:55:09.629Z,22.85
2023-03-21T22:57:38.113Z,21.08
2023-03-21T23:00:12.950Z,21.58
